Time;durP1;ratioP1;P1;durP2;ratioP2;P2;SDS_P1;SDS_P2;PMS_P1;PMS_P2;Temp;Humidity;BMP_temperature;BMP_pressure;BME280_temperature;BME280_humidity;BME280_pressure;Samples;Min_cycle;Max_cycle;Signal;HPM_P1;HPM_P2
2022/01/23 00:01:48;;;;;;;;;;;;;;;22.04;37.63;103421.84;7280403;19;154443;-51
2022/01/23 00:04:15;;;;;;;;;;;;;;;22.04;37.48;103425.50;7277479;19;154446;-52
2022/01/23 00:06:45;;;;;;;;;;;;;;;22.06;37.61;103425.25;7279869;19;151810;-52
2022/01/23 00:09:14;;;;;;;;;;;;;;;22.06;37.25;103433.72;7280761;19;153233;-53
2022/01/23 00:11:48;;;;;;;;;;;;;;;22.06;37.37;103425.25;7279356;19;154152;-53
2022/01/23 00:19:16;;;;;;;;;;;;;;;22.04;37.70;103427.47;7282644;19;154865;-52
2022/01/23 00:21:45;;;;;;;;;;;;;;;22.04;37.86;103419.03;7280616;19;152546;-51
2022/01/23 00:31:41;;;;;;;;;;;;;;;21.99;38.07;103425.44;7282692;19;153385;-52
2022/01/23 00:34:10;;;;;;;;;;;;;;;21.98;38.08;103435.00;7274659;19;151764;-51
2022/01/23 00:36:37;;;;;;;;;;;;;;;21.97;37.85;103426.81;7284200;19;152946;-51
2022/01/23 00:39:04;;;;;;;;;;;;;;;21.94;37.65;103428.16;7283799;19;154019;-51
2022/01/23 00:41:32;;;;;;;;;;;;;;;21.93;38.10;103417.19;7284913;19;152564;-51
2022/01/23 00:44:00;;;;;;;;;;;;;;;21.91;38.03;103424.97;7284105;19;152641;-52
2022/01/23 00:51:29;;;;;;;;;;;;;;;21.85;37.79;103423.22;7282446;19;153478;-52
2022/01/23 00:53:58;;;;;;;;;;;;;;;21.83;38.15;103426.28;7282153;19;152862;-52
2022/01/23 00:56:25;;;;;;;;;;;;;;;21.80;38.35;103425.94;7283744;19;153082;-51
2022/01/23 00:58:53;;;;;;;;;;;;;;;21.78;38.08;103411.28;7283373;19;153402;-51
2022/01/23 01:01:20;;;;;;;;;;;;;;;21.75;38.57;103407.03;7283540;19;151991;-52
2022/01/23 01:03:49;;;;;;;;;;;;;;;21.72;38.39;103410.31;7280414;19;152686;-52
2022/01/23 01:06:18;;;;;;;;;;;;;;;21.69;38.46;103400.44;7283311;19;154031;-51
2022/01/23 01:08:47;;;;;;;;;;;;;;;21.66;38.57;103398.16;7294172;19;151737;-52
2022/01/23 01:31:26;;;;;;;;;;;;;;;21.44;39.31;103402.00;7279283;19;153372;-51
2022/01/23 01:34:02;;;;;;;;;;;;;;;21.42;39.91;103398.56;7283127;19;152541;-52
2022/01/23 01:39:00;;;;;;;;;;;;;;;21.35;39.95;103393.09;7277640;19;152132;-51
2022/01/23 01:41:27;;;;;;;;;;;;;;;21.33;39.96;103386.03;7282076;19;152334;-51
2022/01/23 01:43:56;;;;;;;;;;;;;;;21.29;40.40;103385.69;7282336;19;151752;-51
2022/01/23 01:46:24;;;;;;;;;;;;;;;21.27;40.15;103379.47;7280204;19;153223;-51
2022/01/23 01:48:52;;;;;;;;;;;;;;;21.24;40.55;103380.84;7282472;19;151927;-52
2022/01/23 01:51:20;;;;;;;;;;;;;;;21.21;40.21;103384.13;7288137;19;152697;-51
2022/01/23 01:53:52;;;;;;;;;;;;;;;21.18;40.65;103381.84;7281610;19;152084;-51
2022/01/23 01:56:19;;;;;;;;;;;;;;;21.16;40.81;103377.59;7281769;19;153491;-51
2022/01/23 02:08:50;;;;;;;;;;;;;;;21.02;40.76;103364.94;7283765;19;152680;-51
2022/01/23 02:11:24;;;;;;;;;;;;;;;21.01;40.90;103366.88;7281617;19;152752;-51
2022/01/23 02:14:08;;;;;;;;;;;;;;;20.99;41.09;103360.66;7290661;19;154443;-51
2022/01/23 02:17:11;;;;;;;;;;;;;;;20.95;40.92;103365.06;7281106;19;152318;-51
2022/01/23 02:57:03;;;;;;;;;;;;;;;20.50;41.53;103353.81;7277797;19;151776;-52
2022/01/23 02:59:35;;;;;;;;;;;;;;;20.47;41.76;103354.31;7285484;19;153592;-52
2022/01/23 03:02:12;;;;;;;;;;;;;;;20.43;41.54;103355.91;7280430;19;152828;-51
2022/01/23 03:04:48;;;;;;;;;;;;;;;20.41;41.77;103355.28;7279292;19;153132;-51
2022/01/23 03:30:28;;;;;;;;;;;;;;;20.16;41.96;103354.72;7281595;19;151972;-51
2022/01/23 03:32:56;;;;;;;;;;;;;;;20.13;41.95;103349.59;7279996;19;152885;-52
2022/01/23 03:35:23;;;;;;;;;;;;;;;20.11;42.08;103347.06;7274863;19;154303;-52
2022/01/23 03:37:50;;;;;;;;;;;;;;;20.08;42.24;103341.09;7279152;19;151826;-52
2022/01/23 03:40:18;;;;;;;;;;;;;;;20.07;42.54;103336.56;7270397;19;154703;-52
2022/01/23 03:42:47;;;;;;;;;;;;;;;20.03;42.42;103339.03;7286071;19;154286;-52
2022/01/23 03:45:48;;;;;;;;;;;;;;;20.02;42.27;103339.25;7274087;19;151942;-51
2022/01/23 03:50:42;;;;;;;;;;;;;;;19.97;42.54;103335.25;7287676;19;152388;-52
2022/01/23 03:53:10;;;;;;;;;;;;;;;19.96;42.44;103333.53;7283943;19;152786;-52
2022/01/23 03:55:38;;;;;;;;;;;;;;;19.95;42.39;103330.97;7279920;19;153079;-52
2022/01/23 03:58:07;;;;;;;;;;;;;;;19.91;42.83;103336.22;7284901;19;151897;-52
2022/01/23 04:00:35;;;;;;;;;;;;;;;19.90;42.46;103330.84;7285904;19;153264;-52
2022/01/23 04:03:02;;;;;;;;;;;;;;;19.87;42.63;103332.19;7285442;19;154376;-52
2022/01/23 04:05:29;;;;;;;;;;;;;;;19.86;42.73;103326.81;7295151;19;152199;-52
2022/01/23 04:07:57;;;;;;;;;;;;;;;19.82;42.74;103328.41;7285993;19;152988;-51
2022/01/23 04:10:25;;;;;;;;;;;;;;;19.81;42.61;103330.38;7274399;19;152298;-52
2022/01/23 05:00:36;;;;;;;;;;;;;;;19.47;43.38;103312.47;7284175;19;153777;-51
2022/01/23 05:05:36;;;;;;;;;;;;;;;19.45;43.84;103319.41;7283888;19;151857;-51
2022/01/23 05:08:06;;;;;;;;;;;;;;;19.44;43.75;103326.97;7282090;19;153578;-51
2022/01/23 05:10:33;;;;;;;;;;;;;;;19.42;43.63;103317.94;7277064;19;153625;-52
2022/01/23 05:13:02;;;;;;;;;;;;;;;19.40;43.92;103316.44;7280862;19;152465;-52
2022/01/23 05:15:29;;;;;;;;;;;;;;;19.38;43.76;103310.25;7279100;19;154206;-51
2022/01/23 05:17:56;;;;;;;;;;;;;;;19.36;43.81;103315.22;7280897;19;152361;-51
2022/01/23 05:20:27;;;;;;;;;;;;;;;19.35;44.06;103307.94;7285033;19;152624;-51
2022/01/23 05:23:00;;;;;;;;;;;;;;;19.33;44.08;103310.97;7278866;19;152537;-51
2022/01/23 05:25:30;;;;;;;;;;;;;;;19.32;43.83;103320.47;7282666;19;152024;-51
2022/01/23 05:27:57;;;;;;;;;;;;;;;19.31;43.76;103315.09;7277270;19;153099;-52
2022/01/23 05:30:24;;;;;;;;;;;;;;;19.28;44.17;103308.03;7282421;19;154589;-51
2022/01/23 05:32:52;;;;;;;;;;;;;;;19.28;44.01;103307.19;7284769;19;151469;-51
2022/01/23 05:35:21;;;;;;;;;;;;;;;19.25;43.98;103313.28;7287292;19;153751;-51
2022/01/23 05:37:50;;;;;;;;;;;;;;;19.24;43.78;103311.56;7283316;19;152471;-51
2022/01/23 05:40:20;;;;;;;;;;;;;;;19.23;43.78;103307.91;7283507;19;152054;-51
2022/01/23 05:42:47;;;;;;;;;;;;;;;19.18;43.97;103296.56;7281173;19;153936;-51
2022/01/23 05:45:15;;;;;;;;;;;;;;;19.18;44.23;103301.31;7272242;19;153006;-51
2022/01/23 05:47:43;;;;;;;;;;;;;;;19.18;44.13;103295.72;7282012;19;153618;-51
2022/01/23 05:50:10;;;;;;;;;;;;;;;19.16;44.20;103298.78;7281104;19;153725;-51
2022/01/23 05:52:38;;;;;;;;;;;;;;;19.14;43.94;103300.09;7279831;19;152534;-51
2022/01/23 05:55:06;;;;;;;;;;;;;;;19.14;44.22;103294.50;7289776;19;153011;-51
2022/01/23 05:57:33;;;;;;;;;;;;;;;19.13;44.13;103298.38;7282829;19;151855;-51
2022/01/23 06:00:00;;;;;;;;;;;;;;;19.13;43.95;103301.19;7282959;19;152576;-51
2022/01/23 06:02:27;;;;;;;;;;;;;;;19.10;44.08;103300.59;7281179;19;153260;-52
2022/01/23 06:04:54;;;;;;;;;;;;;;;19.08;44.34;103308.38;7284777;19;151983;-51
2022/01/23 06:07:21;;;;;;;;;;;;;;;19.08;44.61;103304.72;7281100;19;153741;-51
2022/01/23 06:09:48;;;;;;;;;;;;;;;19.06;44.41;103299.38;7276304;19;154373;-52
2022/01/23 06:12:16;;;;;;;;;;;;;;;19.05;44.63;103294.84;7280877;19;152629;-51
2022/01/23 06:14:43;;;;;;;;;;;;;;;19.04;44.27;103301.53;7280544;19;153807;-51
2022/01/23 06:17:10;;;;;;;;;;;;;;;19.04;44.57;103307.16;7281084;19;153918;-51
2022/01/23 06:19:38;;;;;;;;;;;;;;;19.03;44.64;103304.63;7282512;19;151769;-52
2022/01/23 06:22:06;;;;;;;;;;;;;;;19.01;44.70;103301.19;7280117;19;154123;-52
2022/01/23 06:24:33;;;;;;;;;;;;;;;19.00;44.82;103303.13;7280713;19;151642;-52
2022/01/23 06:27:01;;;;;;;;;;;;;;;18.99;44.45;103309.81;7277789;19;152706;-52
2022/01/23 06:29:30;;;;;;;;;;;;;;;18.98;44.54;103308.13;7275968;19;155484;-51
2022/01/23 06:32:00;;;;;;;;;;;;;;;18.96;44.75;103304.72;7281622;19;151926;-52
2022/01/23 06:34:30;;;;;;;;;;;;;;;18.92;44.95;103303.47;7284684;19;151499;-51
2022/01/23 06:36:58;;;;;;;;;;;;;;;19.00;44.99;103310.69;7277264;19;152863;-51
2022/01/23 06:39:25;;;;;;;;;;;;;;;19.03;45.14;103301.81;7287556;19;151928;-52
2022/01/23 06:41:53;;;;;;;;;;;;;;;19.05;45.25;103308.88;7278623;19;154442;-51
2022/01/23 06:44:22;;;;;;;;;;;;;;;19.07;45.19;103303.88;7278829;19;151866;-52
2022/01/23 06:46:50;;;;;;;;;;;;;;;19.12;45.09;103313.53;7271393;19;153972;-51
2022/01/23 06:49:17;;;;;;;;;;;;;;;19.15;45.09;103313.88;7281367;19;153418;-51
2022/01/23 06:51:44;;;;;;;;;;;;;;;19.20;45.40;103310.34;7282598;19;152246;-51
2022/01/23 06:54:11;;;;;;;;;;;;;;;19.25;45.59;103316.09;7281083;19;153836;-51
2022/01/23 06:56:39;;;;;;;;;;;;;;;19.29;45.81;103311.69;7276825;19;153110;-51
2022/01/23 06:59:08;;;;;;;;;;;;;;;19.36;45.61;103312.44;7281173;19;152636;-52
2022/01/23 07:01:37;;;;;;;;;;;;;;;19.42;45.71;103315.13;7288065;19;152197;-51
2022/01/23 07:04:05;;;;;;;;;;;;;;;19.49;45.88;103321.47;7280970;19;151938;-52
2022/01/23 07:06:32;;;;;;;;;;;;;;;19.56;45.89;103310.16;7282255;19;153499;-52
2022/01/23 07:09:08;;;;;;;;;;;;;;;19.64;45.73;103314.53;7278806;19;153590;-52
2022/01/23 07:11:35;;;;;;;;;;;;;;;19.71;45.88;103309.66;7281298;19;152191;-52
2022/01/23 07:14:02;;;;;;;;;;;;;;;19.77;45.58;103317.09;7280563;19;153138;-51
2022/01/23 07:16:30;;;;;;;;;;;;;;;19.83;45.43;103318.91;7275368;19;154160;-51
2022/01/23 07:18:57;;;;;;;;;;;;;;;19.89;45.28;103317.94;7271827;19;152911;-52
2022/01/23 07:21:24;;;;;;;;;;;;;;;19.97;45.01;103317.56;7286909;19;152717;-52
2022/01/23 07:23:52;;;;;;;;;;;;;;;20.03;45.32;103321.34;7295968;19;153451;-52
2022/01/23 07:26:21;;;;;;;;;;;;;;;20.10;45.00;103319.22;7294117;19;153392;-52
2022/01/23 07:28:50;;;;;;;;;;;;;;;20.16;45.18;103324.72;7291476;19;153368;-51
2022/01/23 07:34:03;;;;;;;;;;;;;;;20.29;44.43;103330.03;7296927;19;152078;-51
2022/01/23 07:36:30;;;;;;;;;;;;;;;20.36;44.04;103324.31;7288987;19;153333;-52
2022/01/23 07:38:57;;;;;;;;;;;;;;;20.41;44.07;103332.84;7291548;19;152350;-52
2022/01/23 07:41:24;;;;;;;;;;;;;;;20.47;44.16;103331.84;7291492;19;153472;-52
2022/01/23 07:43:52;;;;;;;;;;;;;;;20.52;44.14;103337.56;7292804;19;154293;-52
2022/01/23 07:46:21;;;;;;;;;;;;;;;20.56;43.88;103335.97;7302066;19;151663;-51
2022/01/23 07:48:49;;;;;;;;;;;;;;;20.63;43.42;103344.22;7292918;19;153056;-52
2022/01/23 07:51:18;;;;;;;;;;;;;;;20.68;44.19;103344.31;7288052;19;153950;-52
2022/01/23 07:53:45;;;;;;;;;;;;;;;20.73;44.39;103345.28;7292871;19;153403;-51
2022/01/23 07:56:13;;;;;;;;;;;;;;;20.78;44.12;103353.81;7291935;19;153183;-51
2022/01/23 07:58:40;;;;;;;;;;;;;;;20.82;43.92;103352.19;7288897;19;152726;-52
2022/01/23 08:01:07;;;;;;;;;;;;;;;20.88;44.05;103343.88;7291112;19;151945;-52
2022/01/23 08:03:34;;;;;;;;;;;;;;;20.92;43.56;103354.34;7289235;19;152812;-52
2022/01/23 08:06:02;;;;;;;;;;;;;;;20.98;43.37;103358.13;7298331;19;152956;-52
2022/01/23 08:08:30;;;;;;;;;;;;;;;21.03;43.81;103353.41;7289250;19;154149;-52
2022/01/23 08:11:01;;;;;;;;;;;;;;;21.07;43.75;103357.44;7287637;19;152054;-52
2022/01/23 08:13:29;;;;;;;;;;;;;;;21.11;43.66;103346.53;7292658;19;153964;-52
2022/01/23 08:15:56;;;;;;;;;;;;;;;21.14;43.93;103358.16;7290192;19;154140;-52
2022/01/23 08:18:23;;;;;;;;;;;;;;;21.16;43.28;103350.34;7287405;19;152136;-52
2022/01/23 08:20:50;;;;;;;;;;;;;;;21.18;43.62;103356.53;7282264;19;153566;-52
2022/01/23 08:23:21;;;;;;;;;;;;;;;21.20;43.00;103356.31;7289477;19;154344;-52
2022/01/23 08:25:50;;;;;;;;;;;;;;;21.21;43.24;103360.81;7289733;19;151846;-51
2022/01/23 08:28:17;;;;;;;;;;;;;;;21.23;43.02;103359.44;7297255;19;153479;-52
2022/01/23 08:30:44;;;;;;;;;;;;;;;21.24;43.02;103363.13;7286473;19;152078;-52
2022/01/23 08:33:12;;;;;;;;;;;;;;;21.25;42.86;103362.00;7282854;19;153399;-52
2022/01/23 08:35:42;;;;;;;;;;;;;;;21.26;42.50;103358.06;7283832;19;154011;-52
2022/01/23 08:38:09;;;;;;;;;;;;;;;21.27;42.73;103363.44;7284165;19;151697;-52
2022/01/23 08:43:06;;;;;;;;;;;;;;;21.28;42.74;103365.16;7280589;19;153418;-52
2022/01/23 08:45:34;;;;;;;;;;;;;;;21.28;42.82;103356.72;7285751;19;152912;-52
2022/01/23 08:48:01;;;;;;;;;;;;;;;21.27;42.60;103363.44;7283793;19;152689;-52
2022/01/23 08:50:28;;;;;;;;;;;;;;;21.27;42.86;103365.41;7288161;19;153644;-52
2022/01/23 08:52:55;;;;;;;;;;;;;;;21.27;42.63;103359.78;7273892;19;153916;-52
2022/01/23 08:55:22;;;;;;;;;;;;;;;21.24;42.32;103363.97;7279000;19;152829;-52
2022/01/23 08:57:49;;;;;;;;;;;;;;;21.24;42.12;103361.16;7281086;19;151845;-52
2022/01/23 09:00:32;;;;;;;;;;;;;;;21.22;42.34;103357.72;7282794;19;153023;-52
2022/01/23 09:02:59;;;;;;;;;;;;;;;21.21;42.34;103366.44;7283179;19;152334;-52
2022/01/23 09:05:27;;;;;;;;;;;;;;;21.20;42.38;103361.91;7282077;19;152483;-52
2022/01/23 09:07:54;;;;;;;;;;;;;;;21.19;42.10;103360.22;7282855;19;151696;-52
2022/01/23 09:10:26;;;;;;;;;;;;;;;21.18;42.17;103366.94;7282636;19;153236;-53
2022/01/23 09:15:24;;;;;;;;;;;;;;;21.14;41.93;103365.75;7280909;19;153690;-52
2022/01/23 09:17:51;;;;;;;;;;;;;;;21.12;41.96;103362.31;7281642;19;151844;-52
2022/01/23 09:20:18;;;;;;;;;;;;;;;21.12;42.24;103359.50;7283063;19;152079;-51
2022/01/23 09:22:45;;;;;;;;;;;;;;;21.10;42.17;103361.69;7276027;19;153752;-52
2022/01/23 09:25:15;;;;;;;;;;;;;;;21.07;42.73;103357.44;7281001;19;152073;-52
2022/01/23 09:27:42;;;;;;;;;;;;;;;21.05;42.55;103354.03;7280432;19;152552;-52
2022/01/23 09:30:17;;;;;;;;;;;;;;;21.04;42.50;103352.31;7278954;19;153454;-51
2022/01/23 09:32:45;;;;;;;;;;;;;;;21.02;42.97;103346.13;7278410;19;153101;-51
2022/01/23 09:35:12;;;;;;;;;;;;;;;21.00;42.94;103342.69;7288302;19;153715;-52
2022/01/23 09:37:40;;;;;;;;;;;;;;;20.98;42.81;103341.25;7281011;19;152653;-52
2022/01/23 09:40:08;;;;;;;;;;;;;;;20.95;42.96;103336.13;7282388;19;152217;-52
2022/01/23 09:42:41;;;;;;;;;;;;;;;20.94;43.33;103337.25;7280111;19;152760;-52
2022/01/23 09:45:10;;;;;;;;;;;;;;;20.90;42.93;103336.88;7281343;19;152188;-52
2022/01/23 09:47:38;;;;;;;;;;;;;;;20.88;43.14;103336.28;7282964;19;152853;-52
2022/01/23 09:50:06;;;;;;;;;;;;;;;20.85;43.12;103337.63;7280566;19;154361;-52
2022/01/23 09:52:35;;;;;;;;;;;;;;;20.85;43.31;103348.03;7279538;19;152265;-52
2022/01/23 09:57:35;;;;;;;;;;;;;;;20.60;38.57;103339.13;7288648;19;152236;-53
2022/01/23 10:00:05;;;;;;;;;;;;;;;20.47;39.96;103336.59;7285389;19;152496;-53
2022/01/23 10:02:32;;;;;;;;;;;;;;;20.50;40.62;103338.91;7280264;19;154252;-53
2022/01/23 10:05:01;;;;;;;;;;;;;;;20.46;40.31;103344.16;7282603;19;152362;-53
2022/01/23 10:07:28;;;;;;;;;;;;;;;20.45;40.41;103342.47;7279290;19;153967;-53
2022/01/23 10:10:08;;;;;;;;;;;;;;;20.44;40.50;103345.53;7279561;19;153954;-53
2022/01/23 10:12:38;;;;;;;;;;;;;;;20.41;40.60;103344.91;7283487;19;151869;-53
2022/01/23 10:15:06;;;;;;;;;;;;;;;20.41;41.00;103349.69;7280151;19;152837;-54
2022/01/23 10:17:35;;;;;;;;;;;;;;;20.41;40.87;103349.69;7284948;19;152491;-53
2022/01/23 10:20:04;;;;;;;;;;;;;;;20.38;41.12;103350.19;7282532;19;152785;-53
2022/01/23 10:22:33;;;;;;;;;;;;;;;20.35;40.54;103337.47;7277853;19;154267;-53
2022/01/23 10:25:03;;;;;;;;;;;;;;;20.34;40.33;103334.94;7274802;19;152390;-53
2022/01/23 10:27:49;;;;;;;;;;;;;;;20.33;40.26;103338.84;7280886;19;154048;-53
2022/01/23 10:30:19;;;;;;;;;;;;;;;20.33;39.60;103336.03;7276802;19;152923;-53
2022/01/23 10:32:49;;;;;;;;;;;;;;;20.34;39.54;103334.94;7277301;19;151932;-53
2022/01/23 10:35:17;;;;;;;;;;;;;;;20.37;39.71;103338.09;7280026;19;152788;-53
2022/01/23 10:37:45;;;;;;;;;;;;;;;20.38;39.66;103344.56;7277178;19;152726;-53
2022/01/23 10:40:15;;;;;;;;;;;;;;;20.38;39.70;103345.44;7286117;19;152055;-53
2022/01/23 10:48:12;;;;;;;;;;;;;;;20.46;39.58;103346.97;7276448;19;152643;-53
2022/01/23 10:50:39;;;;;;;;;;;;;;;20.49;39.17;103346.47;7280105;19;154164;-53
2022/01/23 10:53:06;;;;;;;;;;;;;;;20.55;39.34;103356.72;7282546;19;153951;-53
2022/01/23 10:55:34;;;;;;;;;;;;;;;20.59;39.54;103349.50;7281578;19;154246;-53
2022/01/23 10:58:03;;;;;;;;;;;;;;;20.61;39.23;103344.50;7270854;19;153327;-53
2022/01/23 11:00:37;;;;;;;;;;;;;;;20.62;39.13;103343.41;7284170;19;151811;-53
2022/01/23 11:03:18;;;;;;;;;;;;;;;20.66;39.09;103346.53;7288191;19;153778;-53
2022/01/23 11:05:45;;;;;;;;;;;;;;;20.68;39.09;103342.38;7281692;19;152223;-53
2022/01/23 11:08:19;;;;;;;;;;;;;;;20.71;38.86;103341.03;7282456;19;153306;-53
2022/01/23 11:10:56;;;;;;;;;;;;;;;20.74;39.08;103340.50;7278486;19;154103;-53
2022/01/23 11:19:17;;;;;;;;;;;;;;;20.82;38.45;103321.28;7279357;19;154011;-53
2022/01/23 11:21:44;;;;;;;;;;;;;;;20.86;38.69;103321.63;7282373;19;151902;-52
2022/01/23 11:24:18;;;;;;;;;;;;;;;20.88;38.61;103313.81;7281265;19;153136;-53
2022/01/23 11:26:46;;;;;;;;;;;;;;;20.92;38.61;103319.78;7289391;19;154130;-53
2022/01/23 11:29:18;;;;;;;;;;;;;;;20.93;38.39;103316.72;7273835;19;153171;-54
2022/01/23 11:31:45;;;;;;;;;;;;;;;20.95;38.23;103320.09;7280716;19;153911;-53
2022/01/23 11:34:13;;;;;;;;;;;;;;;20.98;38.35;103318.78;7278441;19;152021;-53
2022/01/23 11:36:42;;;;;;;;;;;;;;;21.01;38.42;103318.25;7282373;19;152514;-53
2022/01/23 11:39:16;;;;;;;;;;;;;;;21.02;38.45;103311.53;7279161;19;153357;-53
2022/01/23 11:56:26;;;;;;;;;;;;;;;21.05;37.83;103302.56;7281430;19;151996;-53
2022/01/23 11:59:09;;;;;;;;;;;;;;;21.06;38.15;103299.53;7271769;19;152052;-53
2022/01/23 12:01:39;;;;;;;;;;;;;;;21.09;38.16;103303.78;7277607;19;153924;-54
2022/01/23 12:04:06;;;;;;;;;;;;;;;21.10;38.13;103302.66;7281770;19;151644;-53
2022/01/23 12:06:39;;;;;;;;;;;;;;;21.12;38.03;103303.28;7278018;19;153247;-53
2022/01/23 12:09:18;;;;;;;;;;;;;;;21.15;38.05;103291.53;7282497;19;154355;-54
2022/01/23 12:12:06;;;;;;;;;;;;;;;21.18;37.92;103288.22;7292950;19;152039;-53
2022/01/23 12:17:05;;;;;;;;;;;;;;;21.23;37.45;103293.94;7287629;19;151498;-54
2022/01/23 12:19:33;;;;;;;;;;;;;;;21.26;37.59;103294.25;7284125;19;152666;-53
2022/01/23 12:22:19;;;;;;;;;;;;;;;21.28;37.75;103285.56;7286702;19;153265;-53
2022/01/23 12:24:50;;;;;;;;;;;;;;;21.32;37.76;103283.09;7285781;19;152347;-54
2022/01/23 12:27:28;;;;;;;;;;;;;;;21.34;37.28;103281.75;7287131;19;152637;-53
2022/01/23 12:30:31;;;;;;;;;;;;;;;21.37;37.54;103284.03;7278971;19;153621;-54
2022/01/23 12:33:11;;;;;;;;;;;;;;;21.40;37.24;103283.50;7285971;19;152536;-53
2022/01/23 12:35:39;;;;;;;;;;;;;;;21.42;37.50;103269.19;7288693;19;153487;-53
2022/01/23 12:38:09;;;;;;;;;;;;;;;21.45;37.18;103272.34;7286942;19;151848;-53
2022/01/23 12:40:45;;;;;;;;;;;;;;;21.47;36.98;103264.50;7287198;19;153816;-53
2022/01/23 12:43:19;;;;;;;;;;;;;;;21.49;37.06;103270.72;7284958;19;153195;-54
2022/01/23 12:45:52;;;;;;;;;;;;;;;21.53;37.11;103265.44;7287087;19;151636;-53
2022/01/23 12:48:25;;;;;;;;;;;;;;;21.55;36.98;103271.66;7284623;19;154516;-52
2022/01/23 12:50:59;;;;;;;;;;;;;;;21.56;36.93;103267.72;7284442;19;153727;-53
2022/01/23 12:53:36;;;;;;;;;;;;;;;21.58;36.98;103257.91;7286741;19;151958;-54
2022/01/23 12:56:07;;;;;;;;;;;;;;;21.59;37.11;103248.34;7286823;19;152050;-54
2022/01/23 12:58:34;;;;;;;;;;;;;;;21.60;36.99;103252.03;7291997;19;152213;-54
2022/01/23 13:01:04;;;;;;;;;;;;;;;21.63;36.75;103252.34;7276666;19;153538;-53
2022/01/23 13:03:31;;;;;;;;;;;;;;;21.63;36.71;103243.91;7281802;19;154043;-53
2022/01/23 13:05:58;;;;;;;;;;;;;;;21.63;36.49;103234.63;7286445;19;152368;-53
2022/01/23 13:08:29;;;;;;;;;;;;;;;21.62;36.95;103233.75;7286958;19;153479;-54
2022/01/23 13:32:28;;;;;;;;;;;;;;;21.51;36.50;103217.88;7277163;19;152316;-53
2022/01/23 13:35:15;;;;;;;;;;;;;;;21.49;36.30;103207.97;7282828;19;152264;-54
2022/01/23 13:37:46;;;;;;;;;;;;;;;21.47;36.61;103210.22;7283650;19;153161;-53
2022/01/23 13:40:19;;;;;;;;;;;;;;;21.44;36.23;103194.69;7281498;19;154281;-54
2022/01/23 13:53:52;;;;;;;;;;;;;;;21.30;36.49;103191.41;7284056;19;154380;-53
2022/01/23 13:59:12;;;;;;;;;;;;;;;21.25;36.71;103187.69;7284515;19;152776;-53
2022/01/23 14:01:52;;;;;;;;;;;;;;;21.23;36.73;103184.28;7281542;19;153570;-53
2022/01/23 14:04:21;;;;;;;;;;;;;;;21.23;36.74;103184.28;7278117;19;152388;-54
2022/01/23 14:06:52;;;;;;;;;;;;;;;21.24;36.87;103180.34;7281139;19;152297;-53
2022/01/23 14:09:21;;;;;;;;;;;;;;;21.24;36.86;103177.53;7285908;19;153686;-53
2022/01/23 14:11:48;;;;;;;;;;;;;;;21.26;36.37;103172.50;7278209;19;152691;-54
2022/01/23 14:14:15;;;;;;;;;;;;;;;21.24;36.80;103171.91;7269675;19;152702;-53
2022/01/23 14:16:43;;;;;;;;;;;;;;;21.24;36.39;103169.09;7279316;19;151973;-53
2022/01/23 14:19:15;;;;;;;;;;;;;;;21.23;36.53;103164.59;7277094;19;151862;-53
2022/01/23 14:22:02;;;;;;;;;;;;;;;21.22;36.25;103169.34;7275903;19;152732;-53
2022/01/23 14:24:30;;;;;;;;;;;;;;;21.22;36.49;103168.50;7278808;19;152577;-53
2022/01/23 14:27:06;;;;;;;;;;;;;;;21.23;36.63;103167.41;7279366;19;152249;-54
2022/01/23 14:29:35;;;;;;;;;;;;;;;21.20;36.49;103160.34;7285960;19;152334;-53
2022/01/23 14:32:05;;;;;;;;;;;;;;;21.20;36.57;103156.69;7277184;19;152673;-54
2022/01/23 14:34:32;;;;;;;;;;;;;;;21.18;36.60;103161.69;7276636;19;152539;-53
2022/01/23 14:37:03;;;;;;;;;;;;;;;21.17;36.59;103154.38;7274222;19;152609;-54
2022/01/23 14:39:30;;;;;;;;;;;;;;;21.16;36.30;103156.34;7279084;19;152663;-53
2022/01/23 14:42:08;;;;;;;;;;;;;;;21.15;36.57;103159.41;7269587;19;153857;-53
2022/01/23 14:44:36;;;;;;;;;;;;;;;21.14;36.51;103152.94;7279351;19;151676;-53
2022/01/23 14:47:02;;;;;;;;;;;;;;;21.13;36.59;103161.63;7279404;19;153063;-54
2022/01/23 14:49:31;;;;;;;;;;;;;;;21.11;36.33;103161.00;7278152;19;152775;-54
2022/01/23 14:51:59;;;;;;;;;;;;;;;21.10;36.45;103162.13;7287128;19;151832;-55
2022/01/23 14:54:28;;;;;;;;;;;;;;;21.08;36.34;103147.44;7277441;19;154588;-53
2022/01/23 14:56:57;;;;;;;;;;;;;;;21.06;36.26;103152.50;7278824;19;151851;-54
2022/01/23 14:59:23;;;;;;;;;;;;;;;21.05;36.24;103156.41;7279868;19;153129;-54
2022/01/23 15:01:50;;;;;;;;;;;;;;;21.02;36.42;103146.56;7279854;19;152787;-56
2022/01/23 15:04:20;;;;;;;;;;;;;;;20.99;36.58;103149.00;7279866;19;152161;-54
2022/01/23 15:06:47;;;;;;;;;;;;;;;20.98;36.35;103156.63;7280758;19;152996;-54
2022/01/23 15:09:16;;;;;;;;;;;;;;;20.97;36.52;103154.06;7278404;19;152942;-54
2022/01/23 15:11:43;;;;;;;;;;;;;;;20.95;36.64;103145.88;7280419;19;151800;-52
2022/01/23 15:14:10;;;;;;;;;;;;;;;20.92;36.44;103149.19;7279583;19;154663;-53
2022/01/23 15:16:37;;;;;;;;;;;;;;;20.93;36.61;103139.66;7278632;19;152260;-52
2022/01/23 15:19:04;;;;;;;;;;;;;;;20.95;36.46;103145.88;7279246;19;153065;-52
2022/01/23 15:21:31;;;;;;;;;;;;;;;20.97;36.56;103146.47;7279295;19;153566;-53
2022/01/23 15:23:58;;;;;;;;;;;;;;;21.00;36.80;103139.47;7279828;19;152001;-52
2022/01/23 15:26:26;;;;;;;;;;;;;;;21.02;36.90;103143.75;7279985;19;153387;-53
2022/01/23 15:28:53;;;;;;;;;;;;;;;21.05;36.80;103136.75;7273640;19;155030;-53
2022/01/23 15:31:20;;;;;;;;;;;;;;;21.07;36.51;103142.97;7279501;19;152181;-53
2022/01/23 15:33:47;;;;;;;;;;;;;;;21.08;36.61;103141.84;7278651;19;152835;-53
2022/01/23 15:36:14;;;;;;;;;;;;;;;21.09;36.41;103133.16;7280383;19;155199;-53
2022/01/23 15:38:44;;;;;;;;;;;;;;;21.10;36.14;103137.66;7276503;19;152722;-53
2022/01/23 15:41:11;;;;;;;;;;;;;;;21.11;36.18;103133.75;7271552;19;153917;-53
2022/01/23 15:43:38;;;;;;;;;;;;;;;21.12;36.46;103129.81;7278395;19;153738;-53
2022/01/23 15:46:06;;;;;;;;;;;;;;;21.13;36.41;103127.88;7285035;19;153436;-52
2022/01/23 15:48:33;;;;;;;;;;;;;;;21.13;36.05;103125.06;7282746;19;153319;-53
2022/01/23 15:51:00;;;;;;;;;;;;;;;21.13;36.47;103122.25;7287814;19;151795;-53
2022/01/23 15:53:27;;;;;;;;;;;;;;;21.14;36.41;103112.72;7286965;19;153340;-53
2022/01/23 15:55:53;;;;;;;;;;;;;;;21.13;35.69;103123.13;7285083;19;154016;-53
2022/01/23 15:58:20;;;;;;;;;;;;;;;21.11;36.03;103128.13;7296103;19;151710;-54
2022/01/23 16:00:47;;;;;;;;;;;;;;;21.09;35.56;103135.09;7287045;19;153905;-52
2022/01/23 16:03:14;;;;;;;;;;;;;;;21.07;35.94;103117.66;7286038;19;151918;-52
2022/01/23 16:05:41;;;;;;;;;;;;;;;21.05;35.91;103122.69;7285097;19;152404;-52
2022/01/23 16:08:08;;;;;;;;;;;;;;;21.03;35.67;103124.91;7283791;19;153569;-52
2022/01/23 16:10:35;;;;;;;;;;;;;;;21.02;35.97;103121.25;7283283;19;152127;-53
2022/01/23 16:13:01;;;;;;;;;;;;;;;21.04;35.71;103126.59;7285789;19;152750;-52
2022/01/23 16:15:29;;;;;;;;;;;;;;;21.04;35.65;103124.66;7274351;19;152472;-51
2022/01/23 16:17:56;;;;;;;;;;;;;;;21.05;35.82;103122.69;7286636;19;152131;-53
2022/01/23 16:20:23;;;;;;;;;;;;;;;21.06;35.65;103119.63;7292850;19;153962;-52
2022/01/23 16:22:50;;;;;;;;;;;;;;;21.08;36.12;103124.97;7288778;19;151672;-53
2022/01/23 16:25:18;;;;;;;;;;;;;;;21.10;35.74;103123.63;7282074;19;152567;-53
2022/01/23 16:27:45;;;;;;;;;;;;;;;21.13;35.91;103120.31;7285521;19;155054;-53
2022/01/23 16:30:18;;;;;;;;;;;;;;;21.14;35.75;103130.44;7284354;19;151784;-53
2022/01/23 16:32:45;;;;;;;;;;;;;;;21.14;36.05;103119.22;7283645;19;153021;-54
2022/01/23 16:35:14;;;;;;;;;;;;;;;21.17;35.73;103123.44;7282819;19;154255;-51
2022/01/23 16:37:42;;;;;;;;;;;;;;;21.16;35.88;103119.81;7282273;19;151744;-52